Grizzly Air Cargo 5366


PANC
Ted Stevens Anchorage International Airport
Anchorage, Alaska, US
PACD
Cold Bay Airport
Cold Bay, Alaska, US

Activity Log

Date Flight Route Aircraft Duration
No Flights Yet

Route Details

Aircraft Information
Primary: Boeing 727-200F
Backup: Boeing 737-800BCF
Route Data
Distance: 623nm
Sched. Duration: 2h 00m
Avg. Duration: 0h 00m (-200m)
Times Flown: 0
Recm'd Route: TED J115 CDB
Planned Altitude: 32,000ft
Origin Wx: PANC 222153Z 00000KT 8SM BKN016 OVC025 M06/M09 A2965 RMK AO2 SNE37 SLP042 PRESENT WX VCSH N P0000 T10611089 $
Dest. Wx: PACD 222153Z 17004KT 10SM CLR M07/M12 A3014 RMK AO2 SLP209 T10671122
Notes:

Financial History
Total Freight: 0lbs
Average Load: 0lbs/flt
Fuel Used: 0lbs
Avg. Fuel Used: 0lbs/flt
Fuel Expense: $0
Avg. Fuel Expense: $0
Avg. Fuel Cost: $0/lbs
Total Gross Income: $0
Pilot Pay: $0
Total Expenses: $0
Total Revenue: $0
Average Revenue: $0